sensor_id;sensor_type;location;lat;lon;timestamp;P1;durP1;ratioP1;P2;durP2;ratioP2
66893;SDS011;53801;55.786;49.142;2024-02-21T00:00:39;12.10;;;5.03;;
66893;SDS011;53801;55.786;49.142;2024-02-21T00:03:05;18.55;;;5.15;;
66893;SDS011;53801;55.786;49.142;2024-02-21T00:05:31;11.60;;;3.70;;
66893;SDS011;53801;55.786;49.142;2024-02-21T00:07:58;10.43;;;4.10;;
66893;SDS011;53801;55.786;49.142;2024-02-21T00:10:24;12.07;;;3.80;;
66893;SDS011;53801;55.786;49.142;2024-02-21T00:12:50;15.57;;;4.67;;
66893;SDS011;53801;55.786;49.142;2024-02-21T00:15:15;11.25;;;4.53;;
66893;SDS011;53801;55.786;49.142;2024-02-21T00:17:41;13.50;;;4.77;;
66893;SDS011;53801;55.786;49.142;2024-02-21T00:20:08;14.48;;;4.88;;
66893;SDS011;53801;55.786;49.142;2024-02-21T00:22:34;9.80;;;3.97;;
66893;SDS011;53801;55.786;49.142;2024-02-21T00:24:59;12.40;;;4.27;;
66893;SDS011;53801;55.786;49.142;2024-02-21T00:27:25;19.17;;;4.90;;
66893;SDS011;53801;55.786;49.142;2024-02-21T00:29:50;8.13;;;3.13;;
66893;SDS011;53801;55.786;49.142;2024-02-21T00:32:16;10.70;;;3.33;;
66893;SDS011;53801;55.786;49.142;2024-02-21T00:34:41;10.03;;;3.80;;
66893;SDS011;53801;55.786;49.142;2024-02-21T00:37:07;14.53;;;4.97;;
66893;SDS011;53801;55.786;49.142;2024-02-21T00:39:32;13.18;;;5.40;;
66893;SDS011;53801;55.786;49.142;2024-02-21T00:42:00;13.00;;;4.30;;
66893;SDS011;53801;55.786;49.142;2024-02-21T00:44:26;11.32;;;3.45;;
66893;SDS011;53801;55.786;49.142;2024-02-21T00:46:52;18.02;;;6.18;;
66893;SDS011;53801;55.786;49.142;2024-02-21T00:49:17;14.57;;;5.55;;
66893;SDS011;53801;55.786;49.142;2024-02-21T00:51:43;14.00;;;4.82;;
66893;SDS011;53801;55.786;49.142;2024-02-21T00:54:08;12.25;;;3.83;;
66893;SDS011;53801;55.786;49.142;2024-02-21T00:56:34;13.27;;;4.57;;
66893;SDS011;53801;55.786;49.142;2024-02-21T00:59:00;7.77;;;2.83;;
66893;SDS011;53801;55.786;49.142;2024-02-21T01:01:25;16.35;;;5.10;;
66893;SDS011;53801;55.786;49.142;2024-02-21T01:03:51;13.87;;;5.30;;
66893;SDS011;53801;55.786;49.142;2024-02-21T01:06:21;10.73;;;4.38;;
66893;SDS011;53801;55.786;49.142;2024-02-21T01:08:47;10.10;;;3.95;;
66893;SDS011;53801;55.786;49.142;2024-02-21T01:11:13;16.40;;;4.67;;
66893;SDS011;53801;55.786;49.142;2024-02-21T01:13:39;15.40;;;4.78;;
66893;SDS011;53801;55.786;49.142;2024-02-21T01:16:05;11.53;;;3.87;;
66893;SDS011;53801;55.786;49.142;2024-02-21T01:18:32;19.35;;;4.47;;
66893;SDS011;53801;55.786;49.142;2024-02-21T01:20:57;13.32;;;5.30;;
66893;SDS011;53801;55.786;49.142;2024-02-21T01:23:23;18.00;;;5.93;;
66893;SDS011;53801;55.786;49.142;2024-02-21T01:25:48;13.27;;;5.53;;
66893;SDS011;53801;55.786;49.142;2024-02-21T01:28:14;21.05;;;6.05;;
66893;SDS011;53801;55.786;49.142;2024-02-21T01:30:39;14.90;;;6.43;;
66893;SDS011;53801;55.786;49.142;2024-02-21T01:33:05;10.83;;;5.50;;
66893;SDS011;53801;55.786;49.142;2024-02-21T01:35:30;16.58;;;5.80;;
66893;SDS011;53801;55.786;49.142;2024-02-21T01:37:56;14.45;;;5.25;;
66893;SDS011;53801;55.786;49.142;2024-02-21T01:40:21;16.80;;;4.77;;
66893;SDS011;53801;55.786;49.142;2024-02-21T01:42:48;14.60;;;5.88;;
66893;SDS011;53801;55.786;49.142;2024-02-21T01:45:13;14.47;;;5.87;;
66893;SDS011;53801;55.786;49.142;2024-02-21T01:47:39;17.45;;;6.00;;
66893;SDS011;53801;55.786;49.142;2024-02-21T01:50:05;15.53;;;6.23;;
66893;SDS011;53801;55.786;49.142;2024-02-21T01:52:31;20.00;;;6.50;;
66893;SDS011;53801;55.786;49.142;2024-02-21T01:54:57;12.73;;;4.47;;
66893;SDS011;53801;55.786;49.142;2024-02-21T01:57:23;15.48;;;6.50;;
66893;SDS011;53801;55.786;49.142;2024-02-21T01:59:48;18.25;;;6.45;;
66893;SDS011;53801;55.786;49.142;2024-02-21T02:02:14;9.43;;;4.13;;
66893;SDS011;53801;55.786;49.142;2024-02-21T02:04:41;17.67;;;6.80;;
66893;SDS011;53801;55.786;49.142;2024-02-21T02:07:07;21.90;;;6.95;;
66893;SDS011;53801;55.786;49.142;2024-02-21T02:09:33;15.75;;;5.97;;
66893;SDS011;53801;55.786;49.142;2024-02-21T02:11:59;14.37;;;4.87;;
66893;SDS011;53801;55.786;49.142;2024-02-21T02:14:25;19.73;;;6.38;;
66893;SDS011;53801;55.786;49.142;2024-02-21T02:16:51;14.27;;;5.28;;
66893;SDS011;53801;55.786;49.142;2024-02-21T02:19:17;20.17;;;7.97;;
66893;SDS011;53801;55.786;49.142;2024-02-21T02:21:44;16.85;;;6.05;;
66893;SDS011;53801;55.786;49.142;2024-02-21T02:24:11;18.33;;;5.73;;
66893;SDS011;53801;55.786;49.142;2024-02-21T02:26:37;19.80;;;7.10;;
66893;SDS011;53801;55.786;49.142;2024-02-21T02:29:05;16.40;;;6.43;;
66893;SDS011;53801;55.786;49.142;2024-02-21T02:31:31;14.68;;;5.50;;
66893;SDS011;53801;55.786;49.142;2024-02-21T02:33:57;22.23;;;6.27;;
66893;SDS011;53801;55.786;49.142;2024-02-21T02:36:22;12.73;;;5.00;;
66893;SDS011;53801;55.786;49.142;2024-02-21T02:38:48;18.88;;;6.38;;
66893;SDS011;53801;55.786;49.142;2024-02-21T02:41:16;16.47;;;6.20;;
66893;SDS011;53801;55.786;49.142;2024-02-21T02:43:41;17.77;;;6.32;;
66893;SDS011;53801;55.786;49.142;2024-02-21T02:46:07;13.17;;;5.63;;
66893;SDS011;53801;55.786;49.142;2024-02-21T02:48:32;23.37;;;8.03;;
66893;SDS011;53801;55.786;49.142;2024-02-21T02:51:00;21.45;;;7.07;;
66893;SDS011;53801;55.786;49.142;2024-02-21T02:53:26;17.40;;;6.27;;
66893;SDS011;53801;55.786;49.142;2024-02-21T02:55:52;21.27;;;7.00;;
66893;SDS011;53801;55.786;49.142;2024-02-21T02:58:18;16.23;;;6.30;;
66893;SDS011;53801;55.786;49.142;2024-02-21T03:00:43;16.98;;;6.38;;
66893;SDS011;53801;55.786;49.142;2024-02-21T03:03:08;13.73;;;4.28;;
66893;SDS011;53801;55.786;49.142;2024-02-21T03:05:34;15.93;;;5.23;;
66893;SDS011;53801;55.786;49.142;2024-02-21T03:08:05;20.48;;;7.32;;
66893;SDS011;53801;55.786;49.142;2024-02-21T03:10:33;17.50;;;6.38;;
66893;SDS011;53801;55.786;49.142;2024-02-21T03:12:59;16.77;;;7.28;;
66893;SDS011;53801;55.786;49.142;2024-02-21T03:15:25;20.20;;;7.77;;
66893;SDS011;53801;55.786;49.142;2024-02-21T03:17:50;18.58;;;7.22;;
66893;SDS011;53801;55.786;49.142;2024-02-21T03:20:18;15.00;;;5.40;;
66893;SDS011;53801;55.786;49.142;2024-02-21T03:22:45;21.95;;;6.88;;
66893;SDS011;53801;55.786;49.142;2024-02-21T03:25:13;11.88;;;4.88;;
66893;SDS011;53801;55.786;49.142;2024-02-21T03:27:43;18.20;;;7.00;;
66893;SDS011;53801;55.786;49.142;2024-02-21T03:30:09;13.65;;;5.53;;
66893;SDS011;53801;55.786;49.142;2024-02-21T03:32:35;16.27;;;5.63;;
66893;SDS011;53801;55.786;49.142;2024-02-21T03:35:00;16.05;;;7.28;;
66893;SDS011;53801;55.786;49.142;2024-02-21T03:37:26;18.20;;;6.43;;
66893;SDS011;53801;55.786;49.142;2024-02-21T03:39:51;19.17;;;7.10;;
66893;SDS011;53801;55.786;49.142;2024-02-21T03:42:17;20.00;;;6.80;;
66893;SDS011;53801;55.786;49.142;2024-02-21T03:44:43;15.32;;;6.55;;
66893;SDS011;53801;55.786;49.142;2024-02-21T03:47:08;18.70;;;6.33;;
66893;SDS011;53801;55.786;49.142;2024-02-21T03:49:36;18.65;;;7.43;;
66893;SDS011;53801;55.786;49.142;2024-02-21T03:52:01;20.13;;;7.03;;
66893;SDS011;53801;55.786;49.142;2024-02-21T03:54:27;19.98;;;7.63;;
66893;SDS011;53801;55.786;49.142;2024-02-21T03:56:52;18.00;;;7.33;;
66893;SDS011;53801;55.786;49.142;2024-02-21T03:59:18;16.90;;;6.07;;
66893;SDS011;53801;55.786;49.142;2024-02-21T04:01:43;23.13;;;8.23;;
66893;SDS011;53801;55.786;49.142;2024-02-21T04:04:09;24.05;;;7.15;;
66893;SDS011;53801;55.786;49.142;2024-02-21T04:06:35;21.77;;;6.93;;
66893;SDS011;53801;55.786;49.142;2024-02-21T04:09:01;23.67;;;7.50;;
66893;SDS011;53801;55.786;49.142;2024-02-21T04:11:27;20.77;;;6.85;;
66893;SDS011;53801;55.786;49.142;2024-02-21T04:13:53;16.60;;;6.00;;
66893;SDS011;53801;55.786;49.142;2024-02-21T04:16:18;13.40;;;5.53;;
66893;SDS011;53801;55.786;49.142;2024-02-21T04:18:44;10.73;;;4.53;;
66893;SDS011;53801;55.786;49.142;2024-02-21T04:21:10;14.97;;;5.60;;
66893;SDS011;53801;55.786;49.142;2024-02-21T04:23:35;36.33;;;7.78;;
66893;SDS011;53801;55.786;49.142;2024-02-21T04:26:01;19.98;;;6.90;;
66893;SDS011;53801;55.786;49.142;2024-02-21T04:28:26;15.80;;;5.83;;
66893;SDS011;53801;55.786;49.142;2024-02-21T04:30:52;17.60;;;6.22;;
66893;SDS011;53801;55.786;49.142;2024-02-21T04:33:18;18.52;;;6.75;;
66893;SDS011;53801;55.786;49.142;2024-02-21T04:35:43;18.07;;;6.00;;
66893;SDS011;53801;55.786;49.142;2024-02-21T04:38:09;17.65;;;6.80;;
66893;SDS011;53801;55.786;49.142;2024-02-21T04:43:46;17.52;;;5.28;;
66893;SDS011;53801;55.786;49.142;2024-02-21T04:46:18;20.35;;;7.25;;
66893;SDS011;53801;55.786;49.142;2024-02-21T04:48:44;14.82;;;5.35;;
66893;SDS011;53801;55.786;49.142;2024-02-21T04:51:09;19.23;;;7.27;;
66893;SDS011;53801;55.786;49.142;2024-02-21T04:53:35;18.85;;;6.53;;
66893;SDS011;53801;55.786;49.142;2024-02-21T04:56:03;24.23;;;7.47;;
66893;SDS011;53801;55.786;49.142;2024-02-21T04:58:28;17.48;;;5.65;;
66893;SDS011;53801;55.786;49.142;2024-02-21T05:00:57;20.27;;;6.80;;
66893;SDS011;53801;55.786;49.142;2024-02-21T05:03:23;14.17;;;5.03;;
66893;SDS011;53801;55.786;49.142;2024-02-21T05:05:48;18.00;;;6.25;;
66893;SDS011;53801;55.786;49.142;2024-02-21T05:08:14;14.63;;;5.40;;
66893;SDS011;53801;55.786;49.142;2024-02-21T05:10:39;15.23;;;6.90;;
66893;SDS011;53801;55.786;49.142;2024-02-21T05:13:05;16.93;;;6.23;;
66893;SDS011;53801;55.786;49.142;2024-02-21T05:15:31;14.82;;;5.97;;
66893;SDS011;53801;55.786;49.142;2024-02-21T05:17:56;17.80;;;6.47;;
66893;SDS011;53801;55.786;49.142;2024-02-21T05:20:22;13.75;;;5.72;;
66893;SDS011;53801;55.786;49.142;2024-02-21T05:22:47;13.33;;;5.07;;
66893;SDS011;53801;55.786;49.142;2024-02-21T05:25:13;15.20;;;5.20;;
66893;SDS011;53801;55.786;49.142;2024-02-21T05:27:39;17.23;;;5.90;;
66893;SDS011;53801;55.786;49.142;2024-02-21T05:30:04;12.60;;;5.37;;
66893;SDS011;53801;55.786;49.142;2024-02-21T05:32:31;14.35;;;5.72;;
66893;SDS011;53801;55.786;49.142;2024-02-21T05:35:06;17.13;;;6.33;;
66893;SDS011;53801;55.786;49.142;2024-02-21T05:37:31;15.55;;;6.22;;
66893;SDS011;53801;55.786;49.142;2024-02-21T05:39:57;14.17;;;5.70;;
66893;SDS011;53801;55.786;49.142;2024-02-21T05:42:22;14.37;;;6.00;;
66893;SDS011;53801;55.786;49.142;2024-02-21T05:44:48;13.50;;;5.38;;
66893;SDS011;53801;55.786;49.142;2024-02-21T05:47:13;18.97;;;6.00;;
66893;SDS011;53801;55.786;49.142;2024-02-21T05:49:40;15.27;;;5.40;;
66893;SDS011;53801;55.786;49.142;2024-02-21T05:52:06;16.30;;;6.50;;
66893;SDS011;53801;55.786;49.142;2024-02-21T05:54:31;15.77;;;5.40;;
66893;SDS011;53801;55.786;49.142;2024-02-21T05:56:57;16.33;;;5.47;;
66893;SDS011;53801;55.786;49.142;2024-02-21T05:59:26;19.27;;;6.80;;
66893;SDS011;53801;55.786;49.142;2024-02-21T06:01:55;10.57;;;5.43;;
66893;SDS011;53801;55.786;49.142;2024-02-21T06:04:22;16.73;;;6.15;;
66893;SDS011;53801;55.786;49.142;2024-02-21T06:06:48;13.47;;;4.03;;
66893;SDS011;53801;55.786;49.142;2024-02-21T06:09:14;8.90;;;4.30;;
66893;SDS011;53801;55.786;49.142;2024-02-21T06:11:39;17.20;;;6.23;;
66893;SDS011;53801;55.786;49.142;2024-02-21T06:14:05;14.07;;;6.30;;
66893;SDS011;53801;55.786;49.142;2024-02-21T06:16:30;17.85;;;5.38;;
66893;SDS011;53801;55.786;49.142;2024-02-21T06:18:56;17.17;;;6.40;;
66893;SDS011;53801;55.786;49.142;2024-02-21T06:21:21;19.57;;;5.67;;
66893;SDS011;53801;55.786;49.142;2024-02-21T06:23:47;13.00;;;5.90;;
66893;SDS011;53801;55.786;49.142;2024-02-21T06:26:12;13.13;;;5.68;;
66893;SDS011;53801;55.786;49.142;2024-02-21T06:28:38;16.33;;;6.23;;
66893;SDS011;53801;55.786;49.142;2024-02-21T06:31:06;17.33;;;5.63;;
66893;SDS011;53801;55.786;49.142;2024-02-21T06:34:08;12.02;;;5.22;;
66893;SDS011;53801;55.786;49.142;2024-02-21T06:36:34;12.70;;;5.43;;
66893;SDS011;53801;55.786;49.142;2024-02-21T06:38:59;18.63;;;5.88;;
66893;SDS011;53801;55.786;49.142;2024-02-21T06:41:25;12.67;;;5.90;;
66893;SDS011;53801;55.786;49.142;2024-02-21T06:43:50;20.67;;;7.63;;
66893;SDS011;53801;55.786;49.142;2024-02-21T06:46:37;15.60;;;6.32;;
66893;SDS011;53801;55.786;49.142;2024-02-21T06:52:00;15.55;;;6.80;;
66893;SDS011;53801;55.786;49.142;2024-02-21T06:54:26;20.30;;;7.07;;
66893;SDS011;53801;55.786;49.142;2024-02-21T06:56:51;18.67;;;7.57;;
66893;SDS011;53801;55.786;49.142;2024-02-21T06:59:17;14.40;;;5.95;;
66893;SDS011;53801;55.786;49.142;2024-02-21T07:01:47;14.87;;;6.40;;
66893;SDS011;53801;55.786;49.142;2024-02-21T07:04:13;14.68;;;6.65;;
66893;SDS011;53801;55.786;49.142;2024-02-21T07:06:39;15.17;;;6.70;;
66893;SDS011;53801;55.786;49.142;2024-02-21T07:09:04;16.30;;;7.07;;
66893;SDS011;53801;55.786;49.142;2024-02-21T07:11:30;13.90;;;4.82;;
66893;SDS011;53801;55.786;49.142;2024-02-21T07:13:55;17.35;;;6.80;;
66893;SDS011;53801;55.786;49.142;2024-02-21T07:16:23;16.17;;;7.43;;
66893;SDS011;53801;55.786;49.142;2024-02-21T07:18:49;18.40;;;6.97;;
66893;SDS011;53801;55.786;49.142;2024-02-21T07:21:14;18.33;;;7.27;;
66893;SDS011;53801;55.786;49.142;2024-02-21T07:23:41;17.38;;;7.38;;
66893;SDS011;53801;55.786;49.142;2024-02-21T07:26:07;16.33;;;7.35;;
66893;SDS011;53801;55.786;49.142;2024-02-21T07:28:33;15.97;;;6.87;;
66893;SDS011;53801;55.786;49.142;2024-02-21T07:30:59;14.30;;;6.13;;
66893;SDS011;53801;55.786;49.142;2024-02-21T07:33:24;14.80;;;6.07;;
66893;SDS011;53801;55.786;49.142;2024-02-21T07:35:50;17.43;;;7.00;;
66893;SDS011;53801;55.786;49.142;2024-02-21T07:38:15;20.75;;;7.25;;
66893;SDS011;53801;55.786;49.142;2024-02-21T07:40:46;13.93;;;6.27;;
66893;SDS011;53801;55.786;49.142;2024-02-21T07:43:12;21.17;;;6.32;;
66893;SDS011;53801;55.786;49.142;2024-02-21T07:45:37;13.20;;;5.90;;
66893;SDS011;53801;55.786;49.142;2024-02-21T07:48:07;15.67;;;6.93;;
66893;SDS011;53801;55.786;49.142;2024-02-21T07:50:33;15.05;;;7.55;;
66893;SDS011;53801;55.786;49.142;2024-02-21T07:52:58;19.17;;;7.57;;
66893;SDS011;53801;55.786;49.142;2024-02-21T07:55:24;16.88;;;6.47;;
66893;SDS011;53801;55.786;49.142;2024-02-21T07:57:49;19.80;;;8.67;;
66893;SDS011;53801;55.786;49.142;2024-02-21T08:00:15;16.50;;;7.30;;
66893;SDS011;53801;55.786;49.142;2024-02-21T08:02:45;16.83;;;7.78;;
66893;SDS011;53801;55.786;49.142;2024-02-21T08:05:11;15.52;;;7.47;;
66893;SDS011;53801;55.786;49.142;2024-02-21T08:07:37;15.10;;;6.63;;
66893;SDS011;53801;55.786;49.142;2024-02-21T08:10:03;21.27;;;7.75;;
66893;SDS011;53801;55.786;49.142;2024-02-21T08:12:29;16.10;;;7.95;;
66893;SDS011;53801;55.786;49.142;2024-02-21T08:14:55;16.23;;;8.07;;
66893;SDS011;53801;55.786;49.142;2024-02-21T08:17:20;18.07;;;8.43;;
66893;SDS011;53801;55.786;49.142;2024-02-21T08:19:46;16.67;;;8.38;;
66893;SDS011;53801;55.786;49.142;2024-02-21T08:22:13;18.38;;;8.23;;
66893;SDS011;53801;55.786;49.142;2024-02-21T08:24:38;13.93;;;7.63;;
66893;SDS011;53801;55.786;49.142;2024-02-21T08:27:04;18.48;;;7.97;;
66893;SDS011;53801;55.786;49.142;2024-02-21T08:29:30;16.70;;;8.43;;
66893;SDS011;53801;55.786;49.142;2024-02-21T08:31:55;15.70;;;8.33;;
66893;SDS011;53801;55.786;49.142;2024-02-21T08:34:20;17.45;;;9.32;;
66893;SDS011;53801;55.786;49.142;2024-02-21T08:36:46;18.40;;;9.65;;
66893;SDS011;53801;55.786;49.142;2024-02-21T08:39:11;18.83;;;9.40;;
66893;SDS011;53801;55.786;49.142;2024-02-21T08:41:41;17.85;;;10.48;;
66893;SDS011;53801;55.786;49.142;2024-02-21T08:44:06;20.27;;;10.10;;
66893;SDS011;53801;55.786;49.142;2024-02-21T08:46:32;15.75;;;9.68;;
66893;SDS011;53801;55.786;49.142;2024-02-21T08:48:58;18.70;;;9.83;;
66893;SDS011;53801;55.786;49.142;2024-02-21T08:51:23;17.83;;;9.87;;
66893;SDS011;53801;55.786;49.142;2024-02-21T08:53:49;19.90;;;9.60;;
66893;SDS011;53801;55.786;49.142;2024-02-21T08:56:18;14.85;;;9.07;;
66893;SDS011;53801;55.786;49.142;2024-02-21T08:58:44;17.92;;;9.57;;
66893;SDS011;53801;55.786;49.142;2024-02-21T09:01:10;18.77;;;8.88;;
66893;SDS011;53801;55.786;49.142;2024-02-21T09:03:36;16.03;;;9.27;;
66893;SDS011;53801;55.786;49.142;2024-02-21T09:06:01;17.10;;;9.02;;
66893;SDS011;53801;55.786;49.142;2024-02-21T09:08:27;18.38;;;10.10;;
66893;SDS011;53801;55.786;49.142;2024-02-21T09:10:53;17.27;;;10.10;;
66893;SDS011;53801;55.786;49.142;2024-02-21T09:13:18;19.50;;;10.47;;
66893;SDS011;53801;55.786;49.142;2024-02-21T09:15:44;19.38;;;10.00;;
66893;SDS011;53801;55.786;49.142;2024-02-21T09:18:09;18.05;;;10.43;;
66893;SDS011;53801;55.786;49.142;2024-02-21T09:20:35;20.23;;;11.30;;
66893;SDS011;53801;55.786;49.142;2024-02-21T09:23:00;16.13;;;10.40;;
66893;SDS011;53801;55.786;49.142;2024-02-21T09:25:26;18.60;;;10.38;;
66893;SDS011;53801;55.786;49.142;2024-02-21T09:27:53;19.20;;;10.47;;
66893;SDS011;53801;55.786;49.142;2024-02-21T09:30:19;21.70;;;10.93;;
66893;SDS011;53801;55.786;49.142;2024-02-21T09:32:44;16.53;;;9.13;;
66893;SDS011;53801;55.786;49.142;2024-02-21T09:35:09;20.80;;;11.00;;
66893;SDS011;53801;55.786;49.142;2024-02-21T09:37:35;18.35;;;10.18;;
66893;SDS011;53801;55.786;49.142;2024-02-21T09:40:01;21.43;;;10.30;;
66893;SDS011;53801;55.786;49.142;2024-02-21T09:42:46;19.52;;;10.38;;
66893;SDS011;53801;55.786;49.142;2024-02-21T09:50:36;18.88;;;10.38;;
66893;SDS011;53801;55.786;49.142;2024-02-21T09:53:03;17.63;;;10.65;;
66893;SDS011;53801;55.786;49.142;2024-02-21T09:55:31;19.47;;;10.23;;
66893;SDS011;53801;55.786;49.142;2024-02-21T09:57:59;16.80;;;9.55;;
66893;SDS011;53801;55.786;49.142;2024-02-21T10:00:28;18.77;;;9.48;;
66893;SDS011;53801;55.786;49.142;2024-02-21T10:02:54;18.13;;;10.00;;
66893;SDS011;53801;55.786;49.142;2024-02-21T10:05:20;17.17;;;9.13;;
66893;SDS011;53801;55.786;49.142;2024-02-21T10:07:46;21.37;;;9.47;;
66893;SDS011;53801;55.786;49.142;2024-02-21T10:10:13;17.77;;;9.40;;
66893;SDS011;53801;55.786;49.142;2024-02-21T10:12:49;18.10;;;9.70;;
66893;SDS011;53801;55.786;49.142;2024-02-21T10:15:19;18.85;;;9.57;;
66893;SDS011;53801;55.786;49.142;2024-02-21T10:17:44;16.00;;;9.10;;
66893;SDS011;53801;55.786;49.142;2024-02-21T10:20:10;19.77;;;9.77;;
66893;SDS011;53801;55.786;49.142;2024-02-21T10:22:37;19.65;;;9.38;;
66893;SDS011;53801;55.786;49.142;2024-02-21T10:25:11;19.77;;;9.05;;
66893;SDS011;53801;55.786;49.142;2024-02-21T10:27:37;17.33;;;9.57;;
66893;SDS011;53801;55.786;49.142;2024-02-21T10:30:04;18.40;;;9.80;;
66893;SDS011;53801;55.786;49.142;2024-02-21T10:32:30;19.27;;;9.50;;
66893;SDS011;53801;55.786;49.142;2024-02-21T10:47:38;19.87;;;10.63;;
66893;SDS011;53801;55.786;49.142;2024-02-21T10:50:05;21.42;;;10.73;;
66893;SDS011;53801;55.786;49.142;2024-02-21T10:55:04;20.02;;;10.32;;
66893;SDS011;53801;55.786;49.142;2024-02-21T10:57:35;17.67;;;9.90;;
66893;SDS011;53801;55.786;49.142;2024-02-21T11:00:03;18.63;;;9.43;;
66893;SDS011;53801;55.786;49.142;2024-02-21T11:02:33;21.95;;;10.57;;
66893;SDS011;53801;55.786;49.142;2024-02-21T11:04:59;20.58;;;9.30;;
66893;SDS011;53801;55.786;49.142;2024-02-21T11:07:25;15.75;;;8.63;;
66893;SDS011;53801;55.786;49.142;2024-02-21T11:09:51;15.77;;;7.50;;
66893;SDS011;53801;55.786;49.142;2024-02-21T11:12:20;19.75;;;8.75;;
66893;SDS011;53801;55.786;49.142;2024-02-21T11:14:46;17.85;;;8.50;;
66893;SDS011;53801;55.786;49.142;2024-02-21T11:17:16;20.70;;;8.70;;
66893;SDS011;53801;55.786;49.142;2024-02-21T11:19:42;18.85;;;8.25;;
66893;SDS011;53801;55.786;49.142;2024-02-21T11:22:14;18.00;;;8.33;;
66893;SDS011;53801;55.786;49.142;2024-02-21T11:24:40;19.65;;;8.13;;
66893;SDS011;53801;55.786;49.142;2024-02-21T11:27:14;15.98;;;8.15;;
66893;SDS011;53801;55.786;49.142;2024-02-21T11:32:16;17.75;;;8.38;;
66893;SDS011;53801;55.786;49.142;2024-02-21T11:37:43;19.40;;;7.70;;
66893;SDS011;53801;55.786;49.142;2024-02-21T11:40:11;13.88;;;6.32;;
66893;SDS011;53801;55.786;49.142;2024-02-21T11:42:37;22.27;;;8.43;;
66893;SDS011;53801;55.786;49.142;2024-02-21T11:45:02;17.67;;;8.00;;
66893;SDS011;53801;55.786;49.142;2024-02-21T11:47:32;18.83;;;7.63;;
66893;SDS011;53801;55.786;49.142;2024-02-21T11:49:58;18.20;;;7.65;;
66893;SDS011;53801;55.786;49.142;2024-02-21T11:52:24;17.27;;;6.75;;
66893;SDS011;53801;55.786;49.142;2024-02-21T11:54:53;22.33;;;7.38;;
66893;SDS011;53801;55.786;49.142;2024-02-21T11:57:20;17.07;;;6.53;;
66893;SDS011;53801;55.786;49.142;2024-02-21T11:59:46;18.00;;;6.90;;
66893;SDS011;53801;55.786;49.142;2024-02-21T12:02:12;17.40;;;6.67;;
66893;SDS011;53801;55.786;49.142;2024-02-21T12:04:37;19.92;;;6.65;;
66893;SDS011;53801;55.786;49.142;2024-02-21T12:07:03;25.20;;;7.73;;
66893;SDS011;53801;55.786;49.142;2024-02-21T12:09:29;14.40;;;6.55;;
66893;SDS011;53801;55.786;49.142;2024-02-21T12:14:24;20.35;;;6.90;;
66893;SDS011;53801;55.786;49.142;2024-02-21T12:16:50;23.48;;;7.93;;
66893;SDS011;53801;55.786;49.142;2024-02-21T12:19:16;20.07;;;6.33;;
66893;SDS011;53801;55.786;49.142;2024-02-21T12:21:42;20.58;;;6.75;;
66893;SDS011;53801;55.786;49.142;2024-02-21T12:24:41;20.00;;;7.32;;
66893;SDS011;53801;55.786;49.142;2024-02-21T12:27:01;18.17;;;6.07;;
66893;SDS011;53801;55.786;49.142;2024-02-21T12:29:29;14.35;;;6.15;;
66893;SDS011;53801;55.786;49.142;2024-02-21T12:31:55;16.02;;;6.63;;
66893;SDS011;53801;55.786;49.142;2024-02-21T12:34:21;17.23;;;6.30;;
66893;SDS011;53801;55.786;49.142;2024-02-21T12:36:48;21.73;;;6.70;;
66893;SDS011;53801;55.786;49.142;2024-02-21T12:39:13;21.92;;;7.15;;
66893;SDS011;53801;55.786;49.142;2024-02-21T12:41:39;24.80;;;7.07;;
66893;SDS011;53801;55.786;49.142;2024-02-21T12:44:09;21.45;;;6.93;;
66893;SDS011;53801;55.786;49.142;2024-02-21T12:46:36;14.75;;;6.03;;
66893;SDS011;53801;55.786;49.142;2024-02-21T12:49:02;15.77;;;6.25;;
66893;SDS011;53801;55.786;49.142;2024-02-21T12:51:29;17.80;;;6.80;;
66893;SDS011;53801;55.786;49.142;2024-02-21T12:53:55;18.98;;;6.07;;
66893;SDS011;53801;55.786;49.142;2024-02-21T12:56:20;16.90;;;6.22;;
66893;SDS011;53801;55.786;49.142;2024-02-21T12:58:46;20.23;;;6.00;;
66893;SDS011;53801;55.786;49.142;2024-02-21T13:01:11;18.27;;;6.37;;
66893;SDS011;53801;55.786;49.142;2024-02-21T13:03:37;20.50;;;6.30;;
66893;SDS011;53801;55.786;49.142;2024-02-21T13:06:03;11.97;;;5.03;;
66893;SDS011;53801;55.786;49.142;2024-02-21T13:08:29;18.40;;;6.50;;
66893;SDS011;53801;55.786;49.142;2024-02-21T13:10:54;17.13;;;5.23;;
66893;SDS011;53801;55.786;49.142;2024-02-21T13:13:20;21.55;;;6.22;;
66893;SDS011;53801;55.786;49.142;2024-02-21T13:15:45;19.33;;;6.22;;
66893;SDS011;53801;55.786;49.142;2024-02-21T13:18:11;13.90;;;5.37;;
66893;SDS011;53801;55.786;49.142;2024-02-21T13:20:37;19.17;;;6.77;;
66893;SDS011;53801;55.786;49.142;2024-02-21T13:23:03;11.50;;;4.43;;
66893;SDS011;53801;55.786;49.142;2024-02-21T13:25:29;16.55;;;4.93;;
66893;SDS011;53801;55.786;49.142;2024-02-21T13:28:00;19.43;;;6.20;;
66893;SDS011;53801;55.786;49.142;2024-02-21T13:30:25;19.50;;;5.75;;
66893;SDS011;53801;55.786;49.142;2024-02-21T13:32:51;18.45;;;6.03;;
66893;SDS011;53801;55.786;49.142;2024-02-21T13:35:17;17.70;;;5.40;;
66893;SDS011;53801;55.786;49.142;2024-02-21T13:37:43;17.65;;;5.22;;
66893;SDS011;53801;55.786;49.142;2024-02-21T13:40:08;15.53;;;5.50;;
66893;SDS011;53801;55.786;49.142;2024-02-21T13:42:34;15.40;;;5.55;;
66893;SDS011;53801;55.786;49.142;2024-02-21T13:45:03;14.60;;;5.43;;
66893;SDS011;53801;55.786;49.142;2024-02-21T13:47:33;9.60;;;3.63;;
66893;SDS011;53801;55.786;49.142;2024-02-21T13:50:16;12.88;;;4.38;;
66893;SDS011;53801;55.786;49.142;2024-02-21T13:52:47;17.17;;;4.47;;
66893;SDS011;53801;55.786;49.142;2024-02-21T13:55:13;22.23;;;5.20;;
66893;SDS011;53801;55.786;49.142;2024-02-21T13:57:39;14.45;;;4.50;;
66893;SDS011;53801;55.786;49.142;2024-02-21T14:00:05;17.17;;;5.70;;
66893;SDS011;53801;55.786;49.142;2024-02-21T14:02:34;14.13;;;5.25;;
66893;SDS011;53801;55.786;49.142;2024-02-21T14:05:00;14.25;;;4.68;;
66893;SDS011;53801;55.786;49.142;2024-02-21T14:07:25;12.80;;;5.60;;
66893;SDS011;53801;55.786;49.142;2024-02-21T14:10:11;13.65;;;5.50;;
66893;SDS011;53801;55.786;49.142;2024-02-21T14:12:37;13.43;;;5.60;;
66893;SDS011;53801;55.786;49.142;2024-02-21T14:15:04;14.52;;;5.78;;
66893;SDS011;53801;55.786;49.142;2024-02-21T14:17:33;14.88;;;5.40;;
66893;SDS011;53801;55.786;49.142;2024-02-21T14:20:07;12.57;;;3.73;;
66893;SDS011;53801;55.786;49.142;2024-02-21T14:22:32;25.27;;;5.03;;
66893;SDS011;53801;55.786;49.142;2024-02-21T14:25:01;17.20;;;5.30;;
66893;SDS011;53801;55.786;49.142;2024-02-21T14:27:30;15.93;;;4.55;;
66893;SDS011;53801;55.786;49.142;2024-02-21T14:30:07;16.08;;;6.20;;
66893;SDS011;53801;55.786;49.142;2024-02-21T14:32:36;10.85;;;4.60;;
66893;SDS011;53801;55.786;49.142;2024-02-21T14:35:02;19.48;;;6.57;;
66893;SDS011;53801;55.786;49.142;2024-02-21T14:37:29;15.60;;;4.80;;
66893;SDS011;53801;55.786;49.142;2024-02-21T14:39:54;13.13;;;4.63;;
66893;SDS011;53801;55.786;49.142;2024-02-21T14:42:20;14.97;;;5.80;;
66893;SDS011;53801;55.786;49.142;2024-02-21T14:44:45;21.38;;;6.03;;
66893;SDS011;53801;55.786;49.142;2024-02-21T14:47:11;17.05;;;7.05;;
66893;SDS011;53801;55.786;49.142;2024-02-21T14:49:37;17.77;;;6.87;;
66893;SDS011;53801;55.786;49.142;2024-02-21T14:52:05;19.70;;;5.80;;